createdAt,value
2018-04-11T00:01:55.844Z,9.20
2018-04-11T00:04:28.561Z,7.50
2018-04-11T00:07:20.709Z,6.50
2018-04-11T00:10:02.337Z,8.10
2018-04-11T00:12:30.420Z,7.80
2018-04-11T00:14:59.826Z,7.43
2018-04-11T00:17:39.514Z,9.00
2018-04-11T00:20:07.593Z,8.10
2018-04-11T00:25:30.984Z,8.17
2018-04-11T00:28:06.814Z,7.20
2018-04-11T00:30:34.927Z,7.90
2018-04-11T00:33:06.150Z,7.53
2018-04-11T00:35:38.081Z,6.13
2018-04-11T00:38:26.789Z,8.50
2018-04-11T00:40:54.911Z,7.70
2018-04-11T00:43:33.700Z,7.93
2018-04-11T00:46:03.541Z,7.30
2018-04-11T00:48:55.554Z,8.13
2018-04-11T00:51:23.662Z,7.77
2018-04-11T00:53:51.771Z,7.17
2018-04-11T00:56:24.266Z,6.90
2018-04-11T00:58:55.460Z,7.20
2018-04-11T01:01:27.659Z,7.17
2018-04-11T01:04:13.613Z,8.03
2018-04-11T01:06:58.074Z,6.90
2018-04-11T01:09:37.807Z,6.67
2018-04-11T01:12:16.926Z,7.80
2018-04-11T01:14:49.275Z,6.90
2018-04-11T01:17:17.318Z,7.03
2018-04-11T01:19:46.330Z,8.17
2018-04-11T01:22:14.440Z,8.10
2018-04-11T01:24:44.424Z,8.73
2018-04-11T01:27:13.438Z,8.20
2018-04-11T01:29:42.764Z,8.03
2018-04-11T01:32:10.833Z,8.40
2018-04-11T01:37:44.799Z,7.50
2018-04-11T01:40:30.937Z,7.53
2018-04-11T01:42:59.029Z,8.67
2018-04-11T01:45:41.050Z,7.40
2018-04-11T01:48:09.970Z,7.73
2018-04-11T01:50:38.053Z,7.30
2018-04-11T01:53:06.906Z,8.00
2018-04-11T01:55:58.581Z,7.50
2018-04-11T01:58:29.180Z,7.20
2018-04-11T02:00:57.284Z,7.67
2018-04-11T02:03:29.791Z,7.80
2018-04-11T02:06:23.191Z,9.10
2018-04-11T02:08:51.309Z,7.20
2018-04-11T02:11:19.398Z,7.77
2018-04-11T02:13:54.198Z,8.23
2018-04-11T02:16:24.090Z,7.97
2018-04-11T02:19:06.726Z,7.37
2018-04-11T02:21:34.835Z,8.00
2018-04-11T02:24:13.481Z,7.83
2018-04-11T02:26:43.309Z,8.23
2018-04-11T02:29:13.138Z,8.50
2018-04-11T02:31:41.469Z,8.17
2018-04-11T02:34:13.731Z,7.03
2018-04-11T02:39:42.455Z,6.97
2018-04-11T02:42:22.601Z,8.77
2018-04-11T02:44:55.038Z,6.87
2018-04-11T02:47:24.131Z,7.87
2018-04-11T02:49:58.027Z,7.20
2018-04-11T02:52:46.063Z,7.73
2018-04-11T02:55:20.450Z,6.20
2018-04-11T02:57:48.542Z,7.90
2018-04-11T03:00:18.616Z,7.57
2018-04-11T03:02:46.764Z,8.00
2018-04-11T03:05:15.817Z,7.80
2018-04-11T03:07:43.949Z,7.23
2018-04-11T03:10:13.069Z,7.53
2018-04-11T03:12:44.793Z,7.43
2018-04-11T03:15:12.886Z,8.63
2018-04-11T03:17:41.042Z,7.60
2018-04-11T03:20:10.066Z,8.17
2018-04-11T03:22:38.150Z,6.90
2018-04-11T03:25:07.184Z,6.07
2018-04-11T03:27:38.719Z,7.50
2018-04-11T03:30:06.834Z,8.10
2018-04-11T03:32:34.954Z,8.27
2018-04-11T03:38:02.889Z,8.23
2018-04-11T03:40:50.191Z,8.27
2018-04-11T03:43:30.176Z,7.50
2018-04-11T03:46:07.245Z,9.30
2018-04-11T03:48:35.368Z,7.87
2018-04-11T03:51:04.761Z,9.23
2018-04-11T03:53:32.854Z,8.63
2018-04-11T03:56:01.727Z,9.33
2018-04-11T03:58:41.255Z,9.07
2018-04-11T04:04:09.248Z,8.77
2018-04-11T04:06:38.229Z,8.27
2018-04-11T04:09:30.170Z,8.50
2018-04-11T04:12:05.921Z,8.60
2018-04-11T04:14:50.159Z,8.60
2018-04-11T04:17:31.049Z,7.17
2018-04-11T04:20:10.869Z,7.20
2018-04-11T04:22:39.006Z,8.10
2018-04-11T04:25:13.598Z,9.07
2018-04-11T04:27:55.671Z,8.93
2018-04-11T04:30:29.118Z,8.40
2018-04-11T04:33:02.651Z,8.00
2018-04-11T04:35:38.153Z,8.83
2018-04-11T04:38:24.306Z,9.23
2018-04-11T04:40:54.349Z,9.37
2018-04-11T04:43:36.521Z,8.50
2018-04-11T04:46:08.069Z,9.80
2018-04-11T04:48:54.809Z,9.27
2018-04-11T04:51:30.395Z,9.03
2018-04-11T04:53:58.518Z,8.40
2018-04-11T04:56:27.430Z,8.37
2018-04-11T04:58:55.650Z,9.33
2018-04-11T05:01:25.817Z,9.53
2018-04-11T05:03:57.903Z,9.70
2018-04-11T05:06:37.525Z,9.70
2018-04-11T05:09:05.853Z,10.20
2018-04-11T05:11:34.027Z,10.40
2018-04-11T05:14:02.129Z,10.13
2018-04-11T05:16:30.247Z,11.43
2018-04-11T05:19:01.054Z,10.93
2018-04-11T05:21:36.521Z,11.47
2018-04-11T05:24:04.602Z,10.50
2018-04-11T05:26:34.795Z,10.93
2018-04-11T05:29:05.000Z,11.10
2018-04-11T05:31:35.888Z,10.50
2018-04-11T05:34:04.210Z,12.00
2018-04-11T05:36:32.397Z,11.77
2018-04-11T05:39:07.338Z,10.87
2018-04-11T05:41:35.601Z,11.43
2018-04-11T05:44:03.745Z,11.90
2018-04-11T05:46:37.845Z,12.50
2018-04-11T05:49:19.609Z,10.87
2018-04-11T05:51:51.443Z,11.30
2018-04-11T05:54:19.623Z,12.73
2018-04-11T05:56:52.511Z,11.20
2018-04-11T05:59:22.556Z,10.80
2018-04-11T06:01:54.920Z,12.10
2018-04-11T06:04:28.066Z,9.27
2018-04-11T06:06:58.150Z,12.53
2018-04-11T06:09:26.345Z,12.03
2018-04-11T06:14:53.978Z,11.00
2018-04-11T06:17:23.598Z,11.37
2018-04-11T06:19:57.157Z,11.97
2018-04-11T06:22:27.306Z,11.67
2018-04-11T06:24:58.991Z,11.53
2018-04-11T06:27:29.107Z,11.57
2018-04-11T06:30:01.697Z,12.10
2018-04-11T06:32:30.768Z,10.10
2018-04-11T06:35:00.919Z,12.97
2018-04-11T06:37:59.327Z,11.27
2018-04-11T06:43:42.605Z,10.63
2018-04-11T06:46:11.730Z,11.97
2018-04-11T06:48:40.789Z,10.70
2018-04-11T06:51:09.818Z,12.70
2018-04-11T06:53:40.046Z,10.70
2018-04-11T06:56:14.568Z,13.60
2018-04-11T06:58:44.841Z,11.20
2018-04-11T07:01:14.907Z,11.93
2018-04-11T07:03:45.563Z,11.50
2018-04-11T07:06:13.752Z,11.93
2018-04-11T07:08:41.965Z,12.27
2018-04-11T07:11:10.040Z,13.23
2018-04-11T07:13:40.359Z,12.50
2018-04-11T07:16:08.622Z,11.87
2018-04-11T07:18:37.117Z,12.13
2018-04-11T07:21:10.436Z,12.13
2018-04-11T07:23:39.772Z,11.83
2018-04-11T07:26:11.913Z,12.17
2018-04-11T07:28:41.937Z,12.80
2018-04-11T07:31:10.067Z,12.03
2018-04-11T07:33:38.506Z,12.67
2018-04-11T07:36:07.530Z,12.70
2018-04-11T07:38:36.078Z,12.60
2018-04-11T07:41:04.181Z,10.57
2018-04-11T07:43:33.070Z,10.60
2018-04-11T07:46:01.269Z,12.20
2018-04-11T07:48:30.236Z,10.73
2018-04-11T07:50:58.343Z,12.47
2018-04-11T07:53:26.466Z,13.30
2018-04-11T07:55:54.577Z,13.30
2018-04-11T07:58:22.688Z,11.97
2018-04-11T08:00:50.904Z,12.43
2018-04-11T08:03:19.892Z,12.50
2018-04-11T08:05:47.959Z,13.30
2018-04-11T08:08:16.074Z,13.63
2018-04-11T08:10:45.136Z,12.90
2018-04-11T08:13:13.243Z,12.30
2018-04-11T08:15:42.019Z,12.73
2018-04-11T08:18:10.171Z,13.10
2018-04-11T08:20:38.299Z,13.30
2018-04-11T08:23:06.482Z,13.43
2018-04-11T08:25:34.627Z,13.10
2018-04-11T08:28:03.781Z,14.00
2018-04-11T08:30:32.007Z,11.83
2018-04-11T08:33:01.896Z,14.13
2018-04-11T08:35:31.001Z,12.10
2018-04-11T08:37:59.197Z,13.10
2018-04-11T08:40:27.321Z,12.40
2018-04-11T08:42:55.666Z,14.00
2018-04-11T08:45:23.873Z,14.10
2018-04-11T08:47:54.027Z,15.00
2018-04-11T08:50:22.262Z,13.80
2018-04-11T08:52:50.390Z,12.63
2018-04-11T08:55:22.702Z,14.03
2018-04-11T08:57:51.885Z,13.30
2018-04-11T09:00:20.866Z,13.37
2018-04-11T09:02:49.646Z,14.40
2018-04-11T09:05:18.331Z,14.00
2018-04-11T09:07:47.445Z,11.13
2018-04-11T09:10:15.583Z,13.17
2018-04-11T09:12:43.731Z,13.03
2018-04-11T09:15:12.720Z,13.07
2018-04-11T09:17:42.814Z,12.00
2018-04-11T09:20:11.023Z,12.50
2018-04-11T09:22:40.143Z,13.93
2018-04-11T09:25:08.290Z,12.03
2018-04-11T09:27:36.450Z,12.30
2018-04-11T09:30:05.603Z,13.63
2018-04-11T09:32:34.636Z,14.03
2018-04-11T09:35:02.842Z,11.80
2018-04-11T09:37:31.254Z,10.70
2018-04-11T09:40:03.720Z,11.43
2018-04-11T09:42:32.613Z,10.97
2018-04-11T09:45:01.761Z,13.10
2018-04-11T09:47:30.008Z,13.57
2018-04-11T09:49:58.241Z,13.10
2018-04-11T09:52:26.481Z,11.97
2018-04-11T09:54:55.236Z,11.90
2018-04-11T09:57:23.387Z,10.80
2018-04-11T09:59:51.510Z,12.13
2018-04-11T10:02:25.501Z,11.40
2018-04-11T10:04:54.221Z,11.97
2018-04-11T10:07:22.483Z,10.93
2018-04-11T10:09:50.630Z,11.00
2018-04-11T10:12:19.820Z,10.90
2018-04-11T10:14:47.952Z,13.23
2018-04-11T10:17:17.236Z,11.77
2018-04-11T10:19:46.311Z,9.40
2018-04-11T10:22:14.785Z,10.83
2018-04-11T10:24:44.643Z,11.60
2018-04-11T10:27:12.788Z,10.23
2018-04-11T10:29:41.801Z,11.20
2018-04-11T10:32:11.895Z,11.60
2018-04-11T10:34:40.011Z,12.07
2018-04-11T10:37:08.883Z,11.83
2018-04-11T10:39:37.097Z,11.73
2018-04-11T10:42:05.303Z,10.67
2018-04-11T10:44:33.534Z,11.47
2018-04-11T10:47:01.835Z,11.40
2018-04-11T10:49:30.957Z,11.87
2018-04-11T10:51:59.551Z,11.53
2018-04-11T10:54:27.732Z,11.50
2018-04-11T10:56:55.840Z,12.73
2018-04-11T10:59:23.987Z,11.57
2018-04-11T11:01:52.120Z,11.83
2018-04-11T11:04:20.326Z,12.77
2018-04-11T11:06:48.439Z,12.00
2018-04-11T11:09:16.672Z,13.30
2018-04-11T11:11:44.763Z,13.43
2018-04-11T11:14:15.719Z,10.97
2018-04-11T11:16:43.884Z,11.27
2018-04-11T11:19:12.925Z,13.90
2018-04-11T11:21:41.286Z,13.73
2018-04-11T11:24:10.187Z,14.10
2018-04-11T11:26:39.058Z,13.60
2018-04-11T11:29:07.232Z,14.27
2018-04-11T11:31:35.362Z,14.00
2018-04-11T11:34:03.584Z,14.10
2018-04-11T11:36:31.723Z,14.53
2018-04-11T11:38:59.904Z,15.23
2018-04-11T11:41:28.111Z,15.60
2018-04-11T11:43:57.040Z,16.10
2018-04-11T11:46:25.355Z,14.13
2018-04-11T11:48:55.427Z,13.93
2018-04-11T11:51:24.292Z,16.37
2018-04-11T11:53:56.044Z,15.33
2018-04-11T11:56:25.359Z,14.93
2018-04-11T11:58:54.326Z,12.27
2018-04-11T12:01:23.339Z,14.77
2018-04-11T12:03:51.461Z,14.97
2018-04-11T12:06:19.595Z,13.57
2018-04-11T12:08:48.436Z,14.33
2018-04-11T12:11:19.109Z,15.10
2018-04-11T12:13:48.155Z,13.77
2018-04-11T12:16:16.380Z,14.73
2018-04-11T12:18:48.035Z,14.60
2018-04-11T12:21:16.158Z,12.87
2018-04-11T12:23:44.297Z,13.20
2018-04-11T12:26:12.424Z,15.10
2018-04-11T12:28:40.572Z,15.47
2018-04-11T12:31:08.685Z,15.70
2018-04-11T12:33:36.822Z,13.20
2018-04-11T12:36:05.714Z,13.63
2018-04-11T12:38:33.799Z,15.70
2018-04-11T12:41:02.730Z,12.30
2018-04-11T12:43:31.303Z,11.23
2018-04-11T12:45:59.451Z,12.57
2018-04-11T12:48:27.586Z,13.20
2018-04-11T12:50:55.734Z,13.37
2018-04-11T12:53:24.606Z,11.77
2018-04-11T12:55:53.071Z,11.03
2018-04-11T12:58:21.182Z,12.37
2018-04-11T13:00:51.181Z,9.40
2018-04-11T13:03:20.210Z,13.57
2018-04-11T13:05:48.415Z,12.40
2018-04-11T13:08:16.479Z,13.47
2018-04-11T13:10:44.620Z,10.93
2018-04-11T13:13:12.717Z,13.83
2018-04-11T13:15:41.815Z,13.50
2018-04-11T13:18:11.972Z,11.93
2018-04-11T13:20:45.522Z,10.00
2018-04-11T13:23:15.634Z,10.33
2018-04-11T13:25:43.811Z,9.70
2018-04-11T13:28:11.890Z,11.27
2018-04-11T13:30:46.142Z,11.00
2018-04-11T13:33:17.018Z,12.50
2018-04-11T13:35:45.249Z,11.97
2018-04-11T13:38:13.381Z,12.30
2018-04-11T13:40:42.456Z,11.50
2018-04-11T13:43:12.479Z,14.23
2018-04-11T13:45:44.305Z,11.30
2018-04-11T13:48:13.216Z,11.37
2018-04-11T13:50:49.611Z,13.43
2018-04-11T13:53:19.713Z,13.97
2018-04-11T13:56:06.752Z,11.70
2018-04-11T13:58:35.662Z,11.70
2018-04-11T14:01:07.322Z,12.83
2018-04-11T14:03:38.147Z,11.23
2018-04-11T14:06:06.313Z,11.23
2018-04-11T14:08:34.418Z,13.20
2018-04-11T14:11:05.394Z,10.40
2018-04-11T14:13:43.545Z,8.53
2018-04-11T14:16:12.739Z,11.73
2018-04-11T14:18:47.106Z,8.90
2018-04-11T14:21:18.268Z,11.27
2018-04-11T14:23:47.946Z,11.20
2018-04-11T14:26:19.724Z,10.97
2018-04-11T14:28:48.635Z,9.53
2018-04-11T14:31:28.354Z,11.13
2018-04-11T14:33:57.362Z,11.60
2018-04-11T14:36:26.302Z,9.10
2018-04-11T14:38:54.434Z,10.57
2018-04-11T14:41:24.550Z,11.10
2018-04-11T14:43:53.726Z,11.70
2018-04-11T14:46:26.007Z,10.03
2018-04-11T14:48:54.101Z,10.40
2018-04-11T14:51:28.460Z,9.83
2018-04-11T14:53:58.511Z,10.73
2018-04-11T14:56:27.572Z,10.13
2018-04-11T14:58:57.121Z,9.63
2018-04-11T15:01:25.238Z,9.60
2018-04-11T15:03:53.514Z,7.90
2018-04-11T15:06:21.841Z,9.60
2018-04-11T15:08:50.560Z,9.50
2018-04-11T15:11:20.602Z,8.80
2018-04-11T15:13:55.062Z,8.93
2018-04-11T15:16:24.906Z,8.23
2018-04-11T15:18:53.318Z,8.80
2018-04-11T15:21:21.520Z,9.37
2018-04-11T15:23:49.627Z,7.30
2018-04-11T15:26:22.795Z,8.97
2018-04-11T15:28:52.154Z,8.50
2018-04-11T15:31:24.493Z,7.97
2018-04-11T15:33:53.643Z,7.30
2018-04-11T15:36:21.800Z,8.37
2018-04-11T15:38:50.742Z,9.20
2018-04-11T15:41:18.854Z,9.23
2018-04-11T15:43:55.458Z,8.33
2018-04-11T15:46:40.608Z,7.80
2018-04-11T15:49:08.788Z,7.97
2018-04-11T15:51:38.008Z,8.47
2018-04-11T15:54:12.363Z,8.97
2018-04-11T15:56:41.511Z,7.27
2018-04-11T15:59:12.140Z,7.53
2018-04-11T16:01:42.403Z,7.77
2018-04-11T16:04:12.601Z,6.97
2018-04-11T16:06:44.191Z,6.40
2018-04-11T16:09:12.449Z,7.83
2018-04-11T16:11:41.589Z,7.73
2018-04-11T16:14:09.717Z,7.70
2018-04-11T16:16:37.860Z,8.67
2018-04-11T16:19:05.985Z,7.00
2018-04-11T16:21:34.151Z,7.40
2018-04-11T16:24:06.102Z,7.40
2018-04-11T16:26:34.249Z,7.40
2018-04-11T16:29:02.364Z,7.60
2018-04-11T16:31:50.360Z,7.50
2018-04-11T16:34:23.476Z,6.63
2018-04-11T16:36:53.379Z,6.70
2018-04-11T16:39:28.315Z,7.80
2018-04-11T16:41:56.591Z,6.53
2018-04-11T16:44:24.842Z,6.80
2018-04-11T16:46:53.029Z,8.00
2018-04-11T16:49:21.119Z,6.80
2018-04-11T16:51:49.246Z,8.20
2018-04-11T16:54:28.176Z,7.07
2018-04-11T16:56:58.323Z,6.77
2018-04-11T16:59:37.988Z,6.43
2018-04-11T17:02:10.771Z,6.40
2018-04-11T17:04:39.803Z,7.00
2018-04-11T17:07:13.905Z,7.23
2018-04-11T17:09:42.048Z,5.77
2018-04-11T17:12:13.890Z,5.90
2018-04-11T17:14:42.049Z,7.03
2018-04-11T17:17:12.200Z,6.30
2018-04-11T17:19:41.055Z,4.70
2018-04-11T17:22:20.868Z,7.00
2018-04-11T17:25:01.938Z,6.90
2018-04-11T17:27:45.589Z,6.67
2018-04-11T17:30:26.168Z,5.70
2018-04-11T17:32:54.330Z,5.80
2018-04-11T17:35:22.546Z,6.23
2018-04-11T17:37:51.669Z,8.33
2018-04-11T17:40:19.813Z,6.70
2018-04-11T17:42:48.966Z,7.03
2018-04-11T17:45:22.962Z,7.00
2018-04-11T17:47:52.094Z,7.10
2018-04-11T17:50:20.300Z,6.73
2018-04-11T17:52:52.288Z,6.80
2018-04-11T17:55:20.462Z,7.40
2018-04-11T17:57:54.817Z,6.53
2018-04-11T18:00:23.072Z,6.73
2018-04-11T18:02:52.135Z,8.23
2018-04-11T18:05:23.278Z,6.70
2018-04-11T18:07:56.977Z,7.97
2018-04-11T18:10:25.068Z,7.17
2018-04-11T18:12:53.210Z,7.10
2018-04-11T18:15:29.321Z,7.20
2018-04-11T18:17:57.544Z,7.60
2018-04-11T18:20:26.432Z,7.53
2018-04-11T18:22:56.601Z,7.50
2018-04-11T18:25:28.179Z,7.50
2018-04-11T18:28:02.625Z,7.50
2018-04-11T18:30:30.781Z,8.23
2018-04-11T18:32:58.947Z,8.60
2018-04-11T18:35:29.749Z,8.67
2018-04-11T18:37:57.944Z,8.17
2018-04-11T18:40:27.964Z,7.80
2018-04-11T18:42:58.100Z,8.10
2018-04-11T18:45:31.228Z,9.07
2018-04-11T18:48:07.534Z,8.93
2018-04-11T18:50:36.404Z,7.57
2018-04-11T18:53:05.389Z,8.63
2018-04-11T18:55:55.022Z,9.60
2018-04-11T18:58:25.842Z,9.00
2018-04-11T19:00:56.691Z,9.73
2018-04-11T19:03:29.887Z,9.80
2018-04-11T19:06:07.855Z,9.80
2018-04-11T19:08:37.784Z,10.00
2018-04-11T19:11:05.883Z,11.00
2018-04-11T19:13:34.090Z,10.23
2018-04-11T19:16:03.185Z,10.33
2018-04-11T19:18:32.203Z,9.83
2018-04-11T19:21:01.184Z,10.80
2018-04-11T19:23:30.256Z,12.37
2018-04-11T19:26:02.607Z,9.80
2018-04-11T19:28:43.821Z,10.13
2018-04-11T19:31:11.984Z,10.73
2018-04-11T19:33:45.189Z,10.60
2018-04-11T19:36:15.309Z,11.67
2018-04-11T19:38:45.327Z,10.90
2018-04-11T19:41:14.250Z,11.50
2018-04-11T19:43:47.936Z,10.60
2018-04-11T19:46:16.090Z,10.43
2018-04-11T19:48:44.231Z,10.70
2018-04-11T19:51:12.430Z,11.90
2018-04-11T19:53:44.829Z,10.73
2018-04-11T19:56:12.973Z,10.17
2018-04-11T19:58:41.123Z,10.20
2018-04-11T20:01:10.034Z,10.23
2018-04-11T20:03:39.900Z,10.73
2018-04-11T20:06:09.995Z,10.03
2018-04-11T20:08:50.798Z,10.07
2018-04-11T20:11:19.036Z,10.53
2018-04-11T20:13:49.318Z,11.43
2018-04-11T20:16:18.211Z,7.87
2018-04-11T20:19:01.138Z,11.57
2018-04-11T20:21:29.224Z,9.77
2018-04-11T20:23:59.640Z,10.93
2018-04-11T20:26:34.502Z,11.20
2018-04-11T20:29:03.659Z,9.17
2018-04-11T20:31:31.836Z,8.40
2018-04-11T20:34:19.135Z,10.00
2018-04-11T20:36:52.741Z,9.87
2018-04-11T20:39:29.322Z,8.90
2018-04-11T20:42:03.435Z,8.47
2018-04-11T20:44:31.853Z,9.10
2018-04-11T20:50:06.535Z,8.50
2018-04-11T20:52:39.712Z,8.63
2018-04-11T20:55:08.771Z,9.50
2018-04-11T20:57:39.006Z,10.07
2018-04-11T21:00:12.958Z,9.23
2018-04-11T21:02:41.164Z,8.87
2018-04-11T21:08:11.687Z,8.97
2018-04-11T21:10:39.920Z,9.17
2018-04-11T21:13:08.848Z,9.10
2018-04-11T21:15:40.507Z,8.67
2018-04-11T21:18:15.145Z,8.50
2018-04-11T21:20:44.576Z,7.80
2018-04-11T21:23:13.613Z,8.73
2018-04-11T21:25:43.671Z,7.90
2018-04-11T21:28:17.998Z,8.50
2018-04-11T21:30:54.755Z,8.33
2018-04-11T21:33:28.490Z,8.23
2018-04-11T21:35:56.700Z,7.30
2018-04-11T21:38:24.782Z,8.10
2018-04-11T21:41:01.280Z,7.20
2018-04-11T21:43:29.390Z,7.07
2018-04-11T21:46:07.971Z,7.37
2018-04-11T21:48:41.840Z,8.67
2018-04-11T21:51:12.628Z,6.87
2018-04-11T21:53:40.748Z,6.97
2018-04-11T21:56:08.879Z,6.60
2018-04-11T21:58:37.886Z,8.67
2018-04-11T22:01:21.206Z,6.27
2018-04-11T22:03:59.207Z,6.90
2018-04-11T22:06:28.297Z,6.90
2018-04-11T22:11:54.969Z,6.93
2018-04-11T22:14:47.159Z,6.87
2018-04-11T22:17:15.978Z,7.30
2018-04-11T22:19:57.370Z,7.57
2018-04-11T22:22:27.500Z,8.10
2018-04-11T22:25:08.188Z,6.97
2018-04-11T22:27:44.086Z,7.70
2018-04-11T22:30:19.987Z,7.47
2018-04-11T22:33:06.281Z,6.67
2018-04-11T22:38:35.110Z,6.50
2018-04-11T22:41:06.021Z,7.43
2018-04-11T22:43:34.212Z,6.27
2018-04-11T22:46:03.349Z,7.43
2018-04-11T22:48:33.372Z,7.73
2018-04-11T22:51:01.634Z,7.60
2018-04-11T22:53:29.786Z,6.57
2018-04-11T22:55:59.853Z,7.10
2018-04-11T22:58:31.513Z,6.80
2018-04-11T23:01:25.267Z,7.63
2018-04-11T23:03:53.422Z,7.33
2018-04-11T23:09:22.461Z,6.93
2018-04-11T23:11:50.568Z,6.93
2018-04-11T23:14:18.666Z,5.07
2018-04-11T23:16:48.782Z,7.20
2018-04-11T23:19:17.874Z,6.40
2018-04-11T23:21:46.995Z,8.20
2018-04-11T23:24:15.102Z,7.37
2018-04-11T23:26:45.390Z,6.60
2018-04-11T23:29:19.910Z,6.53
2018-04-11T23:31:48.014Z,6.60
2018-04-11T23:34:29.652Z,6.37
2018-04-11T23:37:06.239Z,6.47
2018-04-11T23:39:35.281Z,6.47
2018-04-11T23:42:13.978Z,6.27
2018-04-11T23:44:46.028Z,7.03
2018-04-11T23:47:21.794Z,7.67
2018-04-11T23:49:49.926Z,6.53
2018-04-11T23:52:35.304Z,6.07
2018-04-11T23:55:04.182Z,7.13
2018-04-11T23:57:32.272Z,6.57
